Time;durP1;ratioP1;P1;durP2;ratioP2;P2;SDS_P1;SDS_P2;PMS_P1;PMS_P2;Temp;Humidity;BMP_temperature;BMP_pressure;BME280_temperature;BME280_humidity;BME280_pressure;Samples;Min_cycle;Max_cycle;Signal;HPM_P1;HPM_P2
2023/10/24 00:01:00;;;;;;;7.53;3.17;;;12.10;99.90;;;;;;5025096;28;20483;-68
2023/10/24 00:03:26;;;;;;;7.43;3.67;;;12.10;99.90;;;;;;5027982;28;20076;-68
2023/10/24 00:05:52;;;;;;;8.60;3.30;;;12.00;99.90;;;;;;5027964;28;20033;-68
2023/10/24 00:08:18;;;;;;;5.30;2.90;;;12.00;99.90;;;;;;5030050;28;20036;-68
2023/10/24 00:10:43;;;;;;;6.07;2.85;;;12.10;99.90;;;;;;5030675;28;20537;-68
2023/10/24 00:13:09;;;;;;;6.85;2.95;;;12.00;99.90;;;;;;5028871;28;20339;-68
2023/10/24 00:15:34;;;;;;;9.60;3.47;;;12.00;99.90;;;;;;5029180;28;20048;-68
2023/10/24 00:18:00;;;;;;;6.43;3.30;;;12.00;99.90;;;;;;5030796;28;20033;-68
2023/10/24 00:20:25;;;;;;;6.25;3.25;;;11.90;99.90;;;;;;5028288;28;20067;-68
2023/10/24 00:22:51;;;;;;;5.50;3.80;;;11.80;99.90;;;;;;5027271;28;20087;-68
2023/10/24 00:25:17;;;;;;;6.05;2.90;;;11.70;99.90;;;;;;5034255;28;20494;-68
2023/10/24 00:27:42;;;;;;;5.22;2.78;;;11.60;99.90;;;;;;5031572;28;20024;-68
2023/10/24 00:30:10;;;;;;;6.60;3.35;;;11.50;99.90;;;;;;5028531;28;20075;-68
2023/10/24 00:32:36;;;;;;;7.15;3.90;;;11.40;99.90;;;;;;5029707;28;20076;-68
2023/10/24 00:35:02;;;;;;;7.40;3.97;;;11.30;99.90;;;;;;5031831;28;20033;-68
2023/10/24 00:37:28;;;;;;;11.52;4.40;;;11.30;99.90;;;;;;5030280;28;20030;-68
2023/10/24 00:39:54;;;;;;;6.70;3.70;;;11.30;99.90;;;;;;5033193;28;20039;-68
2023/10/24 00:42:19;;;;;;;6.72;3.90;;;11.20;99.90;;;;;;5037040;28;20029;-68
2023/10/24 00:44:45;;;;;;;6.97;4.00;;;11.20;99.90;;;;;;5034581;28;20026;-68
2023/10/24 00:47:11;;;;;;;9.27;4.20;;;11.10;99.90;;;;;;5030529;28;20026;-68
2023/10/24 00:49:36;;;;;;;8.85;3.88;;;11.20;99.90;;;;;;5031935;28;20020;-68
2023/10/24 00:52:02;;;;;;;5.22;3.53;;;11.10;99.90;;;;;;5029779;28;20408;-68
2023/10/24 00:54:29;;;;;;;4.45;3.17;;;11.10;99.90;;;;;;5028528;28;20104;-68
2023/10/24 00:56:55;;;;;;;10.27;3.42;;;11.10;99.90;;;;;;5030771;28;20436;-68
2023/10/24 00:59:23;;;;;;;5.32;3.67;;;11.20;99.90;;;;;;5030713;28;20025;-68
2023/10/24 01:01:50;;;;;;;9.50;3.47;;;11.10;99.90;;;;;;4996469;28;20053;-68
2023/10/24 01:04:18;;;;;;;7.00;4.07;;;11.20;99.90;;;;;;5027491;28;20042;-68
2023/10/24 01:06:43;;;;;;;6.15;3.35;;;11.20;99.90;;;;;;5036350;28;20081;-68
2023/10/24 01:09:10;;;;;;;7.70;3.63;;;11.20;99.90;;;;;;5030880;28;20100;-67
2023/10/24 01:11:36;;;;;;;8.60;3.13;;;11.20;99.90;;;;;;5032972;28;20021;-68
2023/10/24 01:14:02;;;;;;;6.68;3.35;;;11.20;99.90;;;;;;5033902;28;20033;-68
2023/10/24 01:16:28;;;;;;;8.73;3.42;;;11.20;99.90;;;;;;5032634;28;20025;-68
2023/10/24 01:18:54;;;;;;;6.50;3.83;;;11.10;99.90;;;;;;5032401;28;20032;-69
2023/10/24 01:21:19;;;;;;;7.88;3.63;;;11.10;99.90;;;;;;5031198;28;20030;-68
2023/10/24 01:23:46;;;;;;;9.43;4.13;;;11.10;99.90;;;;;;5033806;28;20032;-68
2023/10/24 01:26:16;;;;;;;5.80;3.60;;;11.10;99.90;;;;;;5038050;28;20021;-68
2023/10/24 01:28:42;;;;;;;11.73;3.47;;;11.10;99.90;;;;;;5036671;28;20045;-67
2023/10/24 01:31:07;;;;;;;6.82;3.97;;;11.10;99.90;;;;;;5028775;28;20038;-68
2023/10/24 01:33:33;;;;;;;5.65;3.63;;;11.00;99.90;;;;;;5031510;28;20490;-68
2023/10/24 01:35:59;;;;;;;11.10;3.50;;;11.00;99.90;;;;;;5028222;28;20549;-68
2023/10/24 01:38:25;;;;;;;6.10;3.70;;;10.90;99.90;;;;;;5035842;28;20029;-68
2023/10/24 01:40:50;;;;;;;6.95;3.95;;;10.90;99.90;;;;;;5029130;28;20120;-68
2023/10/24 01:43:16;;;;;;;10.15;5.20;;;10.90;99.90;;;;;;5029822;28;20040;-68
2023/10/24 01:45:41;;;;;;;7.50;4.32;;;10.90;99.90;;;;;;5032132;28;20483;-67
2023/10/24 01:48:07;;;;;;;7.57;3.35;;;11.00;99.90;;;;;;5031012;28;20026;-68
2023/10/24 01:50:32;;;;;;;8.05;4.10;;;11.00;99.90;;;;;;5032764;28;20457;-68
2023/10/24 01:52:58;;;;;;;6.10;3.63;;;10.90;99.90;;;;;;5028896;28;20087;-68
2023/10/24 01:55:24;;;;;;;7.85;4.13;;;11.00;99.90;;;;;;5033085;28;20022;-68
2023/10/24 01:57:50;;;;;;;7.72;4.45;;;11.00;99.90;;;;;;5028940;28;20033;-68
2023/10/24 02:00:16;;;;;;;13.10;4.10;;;11.00;99.90;;;;;;5026664;28;20027;-68
2023/10/24 02:02:41;;;;;;;9.13;3.80;;;11.10;99.90;;;;;;5026358;28;20025;-68
2023/10/24 02:05:07;;;;;;;5.78;4.05;;;11.10;99.90;;;;;;5031585;28;20096;-69
2023/10/24 02:07:33;;;;;;;7.75;3.80;;;11.20;99.90;;;;;;5030116;28;20048;-68
2023/10/24 02:09:58;;;;;;;9.63;3.65;;;11.20;99.90;;;;;;5031410;28;20057;-68
2023/10/24 02:12:24;;;;;;;8.45;2.72;;;11.30;99.90;;;;;;5030911;28;20060;-68
2023/10/24 02:14:51;;;;;;;10.85;3.83;;;11.30;99.90;;;;;;5030780;28;20042;-68
2023/10/24 02:17:17;;;;;;;11.30;2.92;;;11.40;99.90;;;;;;5025409;28;20498;-68
2023/10/24 02:19:43;;;;;;;4.07;2.60;;;11.40;99.90;;;;;;5031948;28;20025;-68
2023/10/24 02:22:08;;;;;;;5.65;3.05;;;11.40;99.90;;;;;;5030305;28;20037;-68
2023/10/24 02:24:34;;;;;;;7.88;3.33;;;11.40;99.90;;;;;;5031582;28;20030;-68
2023/10/24 02:27:00;;;;;;;7.55;2.45;;;11.50;99.90;;;;;;5033142;28;20025;-68
2023/10/24 02:29:25;;;;;;;6.10;2.47;;;11.50;99.90;;;;;;5029131;28;20108;-68
2023/10/24 02:31:51;;;;;;;5.63;3.03;;;11.60;99.90;;;;;;5031505;28;20406;-68
2023/10/24 02:34:16;;;;;;;4.00;1.95;;;11.60;99.90;;;;;;5031236;28;20069;-68
2023/10/24 02:36:42;;;;;;;6.57;2.65;;;11.60;99.90;;;;;;5028922;28;20033;-68
2023/10/24 02:39:08;;;;;;;4.57;2.40;;;11.70;99.90;;;;;;5032763;28;20490;-69
2023/10/24 02:41:33;;;;;;;3.17;2.03;;;11.70;99.90;;;;;;5027995;28;20112;-70
2023/10/24 02:43:59;;;;;;;5.32;2.22;;;11.70;99.90;;;;;;5030151;28;20035;-68
2023/10/24 02:46:24;;;;;;;5.88;2.65;;;11.70;99.90;;;;;;5030713;28;20025;-70
2023/10/24 02:48:50;;;;;;;7.05;2.80;;;11.70;99.90;;;;;;5028144;28;20130;-68
2023/10/24 02:51:15;;;;;;;7.45;2.40;;;11.60;99.90;;;;;;5028806;28;20037;-68
2023/10/24 02:53:41;;;;;;;3.15;2.40;;;11.60;99.90;;;;;;5034841;28;20088;-68
2023/10/24 02:56:07;;;;;;;9.93;2.10;;;11.60;99.90;;;;;;5026989;28;20495;-69
2023/10/24 02:58:32;;;;;;;3.53;2.15;;;11.60;99.90;;;;;;5029175;28;20033;-69
2023/10/24 03:01:04;;;;;;;2.88;1.85;;;11.60;99.90;;;;;;5030883;28;20072;-68
2023/10/24 03:03:29;;;;;;;3.20;1.88;;;11.60;99.90;;;;;;5040218;28;20059;-68
2023/10/24 03:05:55;;;;;;;6.10;1.90;;;11.60;99.90;;;;;;5033687;28;20028;-68
2023/10/24 03:08:21;;;;;;;3.67;1.73;;;11.60;99.90;;;;;;5051189;28;20111;-68
2023/10/24 03:10:46;;;;;;;6.18;1.92;;;11.60;99.90;;;;;;5032476;28;20038;-68
2023/10/24 03:13:12;;;;;;;5.13;1.65;;;11.60;99.90;;;;;;5030369;28;20025;-68
2023/10/24 03:15:39;;;;;;;9.48;2.03;;;11.70;99.90;;;;;;5032522;28;20099;-69
2023/10/24 03:18:05;;;;;;;6.32;2.00;;;11.70;99.90;;;;;;5031415;28;20040;-68
2023/10/24 03:20:30;;;;;;;4.68;2.63;;;11.70;99.90;;;;;;5030194;28;20491;-68
2023/10/24 03:22:56;;;;;;;3.13;2.08;;;11.70;99.90;;;;;;5030265;28;20025;-68
2023/10/24 03:25:24;;;;;;;2.63;2.05;;;11.70;99.90;;;;;;5029385;28;20108;-68
2023/10/24 03:27:52;;;;;;;3.50;1.60;;;11.70;99.90;;;;;;5030878;28;20032;-69
2023/10/24 03:30:17;;;;;;;2.78;2.05;;;11.80;99.90;;;;;;5028452;28;20017;-68
2023/10/24 03:32:43;;;;;;;4.55;1.45;;;11.80;99.90;;;;;;5029052;28;20479;-69
2023/10/24 03:35:08;;;;;;;2.53;1.63;;;11.80;99.90;;;;;;5030431;28;20376;-68
2023/10/24 03:37:34;;;;;;;4.63;1.90;;;11.80;99.90;;;;;;5025879;28;20491;-68
2023/10/24 03:40:00;;;;;;;5.32;1.77;;;11.80;99.90;;;;;;5026580;28;20021;-68
2023/10/24 03:42:25;;;;;;;2.22;1.30;;;11.80;99.90;;;;;;5027264;28;20445;-68
2023/10/24 03:44:51;;;;;;;2.85;1.40;;;11.80;99.90;;;;;;5027705;28;20031;-69
2023/10/24 03:47:17;;;;;;;3.28;1.77;;;11.80;99.90;;;;;;5030726;28;20147;-69
2023/10/24 03:49:42;;;;;;;3.40;1.33;;;11.80;99.90;;;;;;5023961;28;20434;-68
2023/10/24 03:52:08;;;;;;;2.28;1.83;;;11.80;99.90;;;;;;5028633;28;20029;-68
2023/10/24 03:54:33;;;;;;;2.75;1.42;;;11.80;99.90;;;;;;5031642;28;20037;-68
2023/10/24 03:57:00;;;;;;;2.35;1.50;;;11.80;99.90;;;;;;5029000;28;20036;-68
2023/10/24 03:59:26;;;;;;;12.07;3.17;;;11.80;99.90;;;;;;5031820;28;20044;-68
2023/10/24 04:01:51;;;;;;;2.90;1.50;;;11.80;99.90;;;;;;5025201;28;20422;-68
2023/10/24 04:04:17;;;;;;;2.05;1.50;;;11.70;99.90;;;;;;5033622;28;20087;-68
2023/10/24 04:06:43;;;;;;;5.50;1.48;;;11.80;99.90;;;;;;5028722;28;20108;-68
2023/10/24 04:09:09;;;;;;;2.08;1.30;;;11.80;99.90;;;;;;5026184;28;20380;-70
2023/10/24 04:11:34;;;;;;;2.08;1.15;;;11.70;99.90;;;;;;5028803;28;20034;-68
2023/10/24 04:14:00;;;;;;;2.47;1.48;;;11.70;99.90;;;;;;5033735;28;20021;-68
2023/10/24 04:16:26;;;;;;;8.65;1.40;;;11.80;99.90;;;;;;5031247;28;20032;-68
2023/10/24 04:18:52;;;;;;;2.10;1.00;;;11.70;99.90;;;;;;5029685;28;20036;-68
2023/10/24 04:21:17;;;;;;;1.75;1.33;;;11.70;99.90;;;;;;5032634;28;20074;-68
2023/10/24 04:23:43;;;;;;;3.33;1.00;;;11.80;99.90;;;;;;5031098;28;20033;-68
2023/10/24 04:26:10;;;;;;;1.73;1.10;;;11.80;99.90;;;;;;5028019;28;20022;-68
2023/10/24 04:28:35;;;;;;;4.47;1.00;;;11.80;99.90;;;;;;5033694;28;20029;-68
2023/10/24 04:31:01;;;;;;;2.65;1.00;;;11.80;99.90;;;;;;5031271;28;21959;-68
2023/10/24 04:33:27;;;;;;;4.97;1.60;;;11.80;99.90;;;;;;5028928;28;20705;-69
2023/10/24 04:35:53;;;;;;;3.67;1.30;;;11.80;99.90;;;;;;5033937;28;20026;-68
2023/10/24 04:38:19;;;;;;;0.95;0.90;;;11.80;99.90;;;;;;5033709;28;20449;-68
2023/10/24 04:40:45;;;;;;;3.60;1.85;;;11.80;99.90;;;;;;5030815;28;20068;-68
2023/10/24 04:43:11;;;;;;;3.15;1.85;;;11.80;99.90;;;;;;5030140;28;20026;-68
2023/10/24 04:45:37;;;;;;;1.92;1.33;;;11.80;99.90;;;;;;5030150;28;20104;-68
2023/10/24 04:48:04;;;;;;;1.63;1.00;;;11.80;99.90;;;;;;5029055;28;20033;-68
2023/10/24 04:50:30;;;;;;;1.25;1.10;;;11.90;99.90;;;;;;5030995;28;20022;-68
2023/10/24 04:52:56;;;;;;;1.48;1.05;;;11.90;99.90;;;;;;5031506;28;20025;-68
2023/10/24 04:55:22;;;;;;;2.40;1.00;;;11.90;99.90;;;;;;5030717;28;20030;-68
2023/10/24 04:57:49;;;;;;;1.23;0.95;;;11.90;99.90;;;;;;5032185;28;20037;-68
2023/10/24 05:00:15;;;;;;;2.05;0.93;;;11.90;99.90;;;;;;5029120;28;20101;-68
2023/10/24 05:02:42;;;;;;;1.48;0.90;;;11.90;99.90;;;;;;5030942;28;20413;-68
2023/10/24 05:05:08;;;;;;;1.23;0.90;;;11.90;99.90;;;;;;5032286;28;20049;-68
2023/10/24 05:07:34;;;;;;;1.02;0.80;;;11.90;99.90;;;;;;5029720;28;20092;-68
2023/10/24 05:10:00;;;;;;;0.80;0.73;;;11.90;99.90;;;;;;5031400;28;20505;-68
2023/10/24 05:12:25;;;;;;;1.73;1.15;;;11.80;99.90;;;;;;5030667;28;20434;-68
2023/10/24 05:14:51;;;;;;;0.93;0.60;;;11.80;99.90;;;;;;5031944;28;20025;-68
2023/10/24 05:17:17;;;;;;;1.08;0.85;;;11.80;99.90;;;;;;5029518;28;20034;-68
2023/10/24 05:19:42;;;;;;;8.75;1.10;;;11.70;99.90;;;;;;5033228;28;20469;-68
2023/10/24 05:22:10;;;;;;;1.35;0.88;;;11.70;99.90;;;;;;5030890;28;20030;-69
2023/10/24 05:24:37;;;;;;;1.67;0.95;;;11.70;99.90;;;;;;5031582;28;20042;-68
2023/10/24 05:27:03;;;;;;;1.38;0.85;;;11.70;99.90;;;;;;5030658;28;20091;-68
2023/10/24 05:29:28;;;;;;;6.22;2.08;;;11.60;99.90;;;;;;5024333;28;20057;-68
2023/10/24 05:31:54;;;;;;;2.13;0.68;;;11.70;99.90;;;;;;5027612;28;20053;-68
2023/10/24 05:34:19;;;;;;;1.02;0.70;;;11.60;99.90;;;;;;5032696;28;20037;-68
2023/10/24 05:36:45;;;;;;;0.93;0.70;;;11.60;99.90;;;;;;5031425;28;20491;-68
2023/10/24 05:39:11;;;;;;;1.40;0.90;;;11.50;99.90;;;;;;5031234;28;20029;-68
2023/10/24 05:41:36;;;;;;;1.48;0.90;;;11.50;99.90;;;;;;5028242;28;20034;-67
2023/10/24 05:44:03;;;;;;;1.27;0.82;;;11.50;99.90;;;;;;5033418;28;20075;-67
2023/10/24 05:46:29;;;;;;;1.42;0.95;;;11.40;99.90;;;;;;5031466;28;20372;-67
2023/10/24 05:48:55;;;;;;;1.30;1.13;;;11.40;99.90;;;;;;5030299;28;20021;-67
2023/10/24 05:51:28;;;;;;;1.83;0.73;;;11.30;99.90;;;;;;5030628;28;20027;-67
2023/10/24 05:53:54;;;;;;;;;;;11.30;99.90;;;;;;5032894;28;20021;-67
2023/10/24 05:56:20;;;;;;;7.88;1.40;;;11.30;99.90;;;;;;5032107;28;19909;-67
2023/10/24 05:58:45;;;;;;;2.97;1.55;;;11.20;99.90;;;;;;5026180;28;20048;-67
2023/10/24 06:01:11;;;;;;;1.75;1.50;;;11.20;99.90;;;;;;5023989;28;20029;-67
2023/10/24 06:03:37;;;;;;;12.85;5.43;;;11.20;99.90;;;;;;5028581;28;20503;-67
2023/10/24 06:06:03;;;;;;;10.52;4.65;;;11.20;99.90;;;;;;5035384;28;20104;-67
2023/10/24 06:08:29;;;;;;;8.52;4.07;;;11.20;99.90;;;;;;5032561;28;20036;-67
2023/10/24 06:10:59;;;;;;;2.47;1.73;;;11.10;99.90;;;;;;5036952;28;20034;-67
2023/10/24 06:13:25;;;;;;;3.42;1.27;;;11.10;99.90;;;;;;5037049;28;20632;-67
2023/10/24 06:15:51;;;;;;;2.58;1.15;;;11.00;99.90;;;;;;4993355;28;20044;-66
2023/10/24 06:18:18;;;;;;;6.03;0.98;;;11.00;99.90;;;;;;5032003;28;20033;-67
2023/10/24 06:20:46;;;;;;;1.83;0.80;;;11.00;99.90;;;;;;5029775;28;20045;-67
2023/10/24 06:23:12;;;;;;;3.63;1.65;;;10.90;99.90;;;;;;5027932;28;20029;-66
2023/10/24 06:25:38;;;;;;;1.35;0.75;;;10.80;99.90;;;;;;5035600;28;20486;-67
2023/10/24 06:28:05;;;;;;;1.35;0.90;;;10.80;99.90;;;;;;5051521;28;20057;-67
2023/10/24 06:30:34;;;;;;;1.50;0.90;;;10.80;99.90;;;;;;5029372;28;21505;-67
2023/10/24 06:33:01;;;;;;;3.95;0.90;;;10.80;99.90;;;;;;5034324;28;20032;-67
2023/10/24 06:35:26;;;;;;;2.72;1.38;;;10.70;99.90;;;;;;5034263;28;20048;-67
2023/10/24 06:37:52;;;;;;;2.10;1.17;;;10.70;99.90;;;;;;5031804;28;20048;-67
2023/10/24 06:40:18;;;;;;;0.98;0.88;;;10.80;99.90;;;;;;5032844;28;20503;-68
2023/10/24 06:42:45;;;;;;;1.60;1.00;;;10.70;99.90;;;;;;5030213;28;20021;-67
2023/10/24 06:45:11;;;;;;;3.53;1.17;;;10.70;99.90;;;;;;5026894;28;20399;-67
2023/10/24 06:47:37;;;;;;;3.88;1.17;;;10.70;99.90;;;;;;5036927;28;20560;-67
2023/10/24 06:50:04;;;;;;;12.68;6.80;;;10.80;99.90;;;;;;5027028;28;20025;-67
2023/10/24 06:52:30;;;;;;;14.68;9.10;;;10.80;99.90;;;;;;5033644;28;20425;-67
2023/10/24 06:55:00;;;;;;;10.13;6.43;;;10.80;99.90;;;;;;5029601;28;20509;-66
2023/10/24 06:57:26;;;;;;;6.70;4.82;;;10.90;99.90;;;;;;5031183;28;20479;-67
2023/10/24 06:59:52;;;;;;;5.28;3.20;;;10.90;99.90;;;;;;5042481;28;20028;-67
2023/10/24 07:02:18;;;;;;;2.28;2.08;;;10.90;99.90;;;;;;5030896;28;20553;-67
2023/10/24 07:04:43;;;;;;;3.05;1.70;;;10.90;99.90;;;;;;5032983;28;20022;-67
2023/10/24 07:07:09;;;;;;;2.42;2.08;;;11.00;99.90;;;;;;5021800;28;20029;-67
2023/10/24 07:09:35;;;;;;;2.13;1.80;;;11.00;99.90;;;;;;5034652;28;20029;-67
2023/10/24 07:12:01;;;;;;;2.75;1.67;;;11.10;99.90;;;;;;5031497;28;20039;-67
2023/10/24 07:14:26;;;;;;;5.63;1.60;;;11.10;99.90;;;;;;5028329;28;20017;-67
2023/10/24 07:16:54;;;;;;;2.80;1.90;;;11.10;99.90;;;;;;5023934;28;20034;-67
2023/10/24 07:19:23;;;;;;;1.70;1.13;;;11.20;99.90;;;;;;5027718;28;20483;-67
2023/10/24 07:21:49;;;;;;;4.60;1.35;;;11.20;99.90;;;;;;5029295;28;20394;-68
2023/10/24 07:24:14;;;;;;;2.10;1.42;;;11.20;99.90;;;;;;5022477;28;20022;-67
2023/10/24 07:26:40;;;;;;;2.08;1.40;;;11.30;99.90;;;;;;5024235;28;20426;-67
2023/10/24 07:29:06;;;;;;;3.08;1.30;;;11.30;99.90;;;;;;5030087;28;20105;-67
2023/10/24 07:31:32;;;;;;;2.00;1.38;;;11.30;99.90;;;;;;5028308;28;20093;-67
2023/10/24 07:33:59;;;;;;;4.25;1.60;;;11.40;99.90;;;;;;5028901;28;20494;-67
2023/10/24 07:36:30;;;;;;;1.45;1.30;;;11.40;99.90;;;;;;5028716;28;20025;-67
2023/10/24 07:39:02;;;;;;;2.30;1.15;;;11.40;99.90;;;;;;5027155;28;20660;-67
2023/10/24 07:41:28;;;;;;;2.42;1.10;;;11.50;99.90;;;;;;5024990;28;20052;-67
2023/10/24 07:43:54;;;;;;;2.03;1.35;;;11.50;99.90;;;;;;5028687;28;20447;-67
2023/10/24 07:46:19;;;;;;;1.55;0.88;;;11.60;99.90;;;;;;5045210;28;20160;-67
2023/10/24 07:48:51;;;;;;;1.85;0.90;;;11.60;99.90;;;;;;5031358;28;20025;-67
2023/10/24 07:51:17;;;;;;;0.95;0.77;;;11.70;99.90;;;;;;5034075;28;20032;-67
2023/10/24 07:53:42;;;;;;;1.98;1.13;;;11.80;99.90;;;;;;5031530;28;20418;-67
2023/10/24 07:56:08;;;;;;;6.38;1.10;;;11.90;99.90;;;;;;5033323;28;20099;-67
2023/10/24 07:58:34;;;;;;;5.30;1.15;;;12.00;99.90;;;;;;5031802;28;20099;-69
2023/10/24 08:00:59;;;;;;;2.60;1.08;;;12.10;99.90;;;;;;5019784;28;20139;-68
2023/10/24 08:03:25;;;;;;;3.20;1.10;;;12.20;99.90;;;;;;5025697;28;20564;-67
2023/10/24 08:05:52;;;;;;;5.20;1.13;;;12.20;99.90;;;;;;5029042;28;20026;-66
2023/10/24 08:08:18;;;;;;;5.55;1.65;;;12.30;99.90;;;;;;5024668;28;20021;-67
2023/10/24 08:10:43;;;;;;;3.10;1.52;;;12.30;99.90;;;;;;5034364;28;20398;-67
2023/10/24 08:13:09;;;;;;;2.25;1.25;;;12.40;99.90;;;;;;5029780;28;20080;-67
2023/10/24 08:15:37;;;;;;;4.00;1.17;;;12.40;99.90;;;;;;5023636;28;20082;-67
2023/10/24 08:18:05;;;;;;;2.60;0.98;;;12.50;99.90;;;;;;5031516;28;20513;-67
2023/10/24 08:20:31;;;;;;;1.08;0.80;;;12.60;99.90;;;;;;5027599;28;20029;-67
2023/10/24 08:22:57;;;;;;;6.20;1.50;;;12.60;99.90;;;;;;5028710;28;20290;-67
2023/10/24 08:25:25;;;;;;;3.13;1.63;;;12.60;99.90;;;;;;5028902;28;20018;-67
2023/10/24 08:27:51;;;;;;;2.20;1.20;;;12.60;99.90;;;;;;5029743;28;20022;-67
2023/10/24 08:30:17;;;;;;;4.35;1.77;;;12.60;99.90;;;;;;5029167;28;20025;-67
2023/10/24 08:32:42;;;;;;;7.55;2.45;;;12.70;99.90;;;;;;5026354;28;20030;-67
2023/10/24 08:35:08;;;;;;;4.32;1.20;;;12.70;99.90;;;;;;5023614;28;20556;-67
2023/10/24 08:37:35;;;;;;;1.70;1.02;;;12.80;99.90;;;;;;5025984;28;20113;-67
2023/10/24 08:40:00;;;;;;;2.33;1.23;;;12.80;99.90;;;;;;5026075;28;20029;-67
2023/10/24 08:42:30;;;;;;;2.97;0.90;;;12.90;99.90;;;;;;5025222;28;20030;-67
2023/10/24 08:44:57;;;;;;;6.15;1.20;;;12.90;99.90;;;;;;5025605;28;20024;-67
2023/10/24 08:47:23;;;;;;;2.00;1.20;;;12.90;99.90;;;;;;5026946;28;20110;-67
2023/10/24 08:49:51;;;;;;;2.45;1.23;;;13.00;99.90;;;;;;5026528;28;20034;-67
2023/10/24 08:52:16;;;;;;;5.57;1.48;;;13.00;99.90;;;;;;5027804;28;20112;-67
2023/10/24 08:54:44;;;;;;;2.15;0.77;;;13.10;99.90;;;;;;5025201;28;20105;-67
2023/10/24 08:57:11;;;;;;;2.53;1.15;;;13.20;99.90;;;;;;5043942;28;20033;-67
2023/10/24 08:59:39;;;;;;;2.05;0.70;;;13.40;99.90;;;;;;5026624;28;20338;-67
2023/10/24 09:02:04;;;;;;;2.03;0.90;;;13.60;99.90;;;;;;5028629;28;20029;-68
2023/10/24 09:04:35;;;;;;;2.63;0.57;;;13.60;99.90;;;;;;5033452;28;20105;-67
2023/10/24 09:07:01;;;;;;;2.97;1.40;;;13.70;99.90;;;;;;5047961;28;20025;-67
2023/10/24 09:09:27;;;;;;;2.33;1.02;;;13.80;99.90;;;;;;5044508;28;20083;-67
2023/10/24 09:11:58;;;;;;;1.00;0.65;;;14.00;99.90;;;;;;5028997;28;20125;-67
2023/10/24 09:14:30;;;;;;;1.85;0.82;;;13.90;99.90;;;;;;5046967;28;20108;-67
2023/10/24 09:17:03;;;;;;;3.95;1.67;;;14.00;99.90;;;;;;5009121;28;20060;-67
2023/10/24 09:19:29;;;;;;;3.33;1.50;;;14.10;99.90;;;;;;5027942;28;20387;-67
2023/10/24 09:21:56;;;;;;;2.47;1.00;;;14.00;99.90;;;;;;5026677;28;20483;-67
2023/10/24 09:24:22;;;;;;;3.97;2.22;;;13.80;99.90;;;;;;5030906;28;20037;-67
2023/10/24 09:26:55;;;;;;;1.60;1.23;;;13.80;99.90;;;;;;5030225;28;20117;-67
2023/10/24 09:29:24;;;;;;;6.10;1.30;;;13.70;99.90;;;;;;5043895;28;20026;-67
2023/10/24 09:31:51;;;;;;;2.80;1.00;;;13.70;99.90;;;;;;5028940;28;20120;-67
2023/10/24 09:34:17;;;;;;;7.25;1.38;;;13.70;99.90;;;;;;5024026;28;20056;-67
2023/10/24 09:36:44;;;;;;;6.03;2.63;;;13.70;99.90;;;;;;5032042;28;20026;-67
2023/10/24 09:39:14;;;;;;;4.45;2.47;;;13.70;99.90;;;;;;5028820;28;20021;-67
2023/10/24 09:41:45;;;;;;;2.83;1.27;;;13.80;99.90;;;;;;5028219;28;20029;-67
2023/10/24 09:44:11;;;;;;;2.33;1.20;;;13.80;99.90;;;;;;5031891;28;20025;-67
2023/10/24 09:46:38;;;;;;;3.95;1.30;;;13.80;99.90;;;;;;5032755;28;20021;-67
2023/10/24 09:49:07;;;;;;;1.73;1.20;;;13.90;99.90;;;;;;5030802;28;20043;-67
2023/10/24 09:51:36;;;;;;;4.18;2.75;;;14.00;99.90;;;;;;5026554;28;20032;-67
2023/10/24 09:54:05;;;;;;;5.40;3.28;;;14.20;99.90;;;;;;5028602;28;20089;-68
2023/10/24 09:56:32;;;;;;;2.65;1.55;;;14.20;99.90;;;;;;5021496;28;20037;-67
2023/10/24 09:58:58;;;;;;;4.15;2.38;;;14.30;99.90;;;;;;5031754;28;20175;-68
2023/10/24 10:01:26;;;;;;;2.70;2.08;;;14.50;99.90;;;;;;5031963;28;20543;-68
2023/10/24 10:03:55;;;;;;;3.42;2.50;;;14.70;99.90;;;;;;5036155;28;20055;-67
2023/10/24 10:06:30;;;;;;;3.97;1.92;;;15.00;99.90;;;;;;5024853;28;20161;-67
2023/10/24 10:08:58;;;;;;;1.77;1.00;;;15.20;99.90;;;;;;5028635;28;20525;-67
2023/10/24 10:11:27;;;;;;;1.33;0.95;;;15.20;99.90;;;;;;5026619;28;20025;-67
2023/10/24 10:14:16;;;;;;;1.83;1.45;;;15.40;99.90;;;;;;5032585;28;20063;-67
2023/10/24 10:17:08;;;;;;;4.10;1.38;;;15.30;99.90;;;;;;5018344;28;20028;-67
2023/10/24 10:19:53;;;;;;;3.00;1.50;;;15.30;99.90;;;;;;5026228;28;20033;-67
2023/10/24 10:22:35;;;;;;;1.10;0.85;;;15.20;99.90;;;;;;5023776;28;20018;-68
2023/10/24 10:25:23;;;;;;;4.53;0.98;;;15.40;99.90;;;;;;5024767;28;20104;-67
2023/10/24 10:27:56;;;;;;;3.47;0.73;;;15.30;99.90;;;;;;5030163;28;20542;-67
2023/10/24 10:30:36;;;;;;;2.40;0.73;;;15.50;99.90;;;;;;5022933;28;20025;-67
2023/10/24 10:33:20;;;;;;;2.40;0.80;;;15.40;99.90;;;;;;5027128;28;20045;-67
2023/10/24 10:36:05;;;;;;;3.53;1.23;;;15.50;99.90;;;;;;5022460;28;20096;-67
2023/10/24 10:38:45;;;;;;;1.75;0.70;;;15.50;99.90;;;;;;5030122;28;20047;-67
2023/10/24 10:41:29;;;;;;;2.08;0.70;;;15.40;99.90;;;;;;5029940;28;20147;-67
2023/10/24 10:43:59;;;;;;;1.67;1.05;;;15.50;99.90;;;;;;5020750;28;20061;-67
2023/10/24 10:46:57;;;;;;;2.58;1.42;;;15.40;99.90;;;;;;5032258;28;20024;-68
2023/10/24 10:49:26;;;;;;;27.50;12.57;;;15.40;99.90;;;;;;5023005;28;20437;-67
2023/10/24 10:51:55;;;;;;;5.82;2.75;;;15.50;99.90;;;;;;5031421;28;20082;-67
2023/10/24 10:54:37;;;;;;;3.78;2.58;;;15.50;99.90;;;;;;5036090;28;20034;-67
2023/10/24 10:57:04;;;;;;;2.33;1.30;;;15.30;99.90;;;;;;5035098;28;20021;-67
2023/10/24 10:59:50;;;;;;;4.35;1.77;;;15.10;99.90;;;;;;5027566;28;20030;-67
2023/10/24 11:02:28;;;;;;;3.38;1.25;;;15.00;99.90;;;;;;5046490;28;20052;-67
2023/10/24 11:04:54;;;;;;;4.25;1.02;;;14.90;99.90;;;;;;5025739;28;20060;-67
2023/10/24 11:07:52;;;;;;;3.00;1.20;;;15.00;99.90;;;;;;5029593;28;20025;-67
2023/10/24 11:10:18;;;;;;;1.50;0.80;;;15.00;99.90;;;;;;5023183;28;20049;-67
2023/10/24 11:12:47;;;;;;;3.40;0.77;;;15.20;99.90;;;;;;5026373;28;20056;-67
2023/10/24 11:15:19;;;;;;;4.30;1.20;;;15.40;99.90;;;;;;5026111;28;20530;-67
2023/10/24 11:17:46;;;;;;;2.03;1.52;;;15.30;99.90;;;;;;5014761;28;20529;-67
2023/10/24 11:20:11;;;;;;;3.28;1.00;;;15.40;99.90;;;;;;5044804;28;20097;-67
2023/10/24 11:22:38;;;;;;;1.77;1.05;;;15.20;99.90;;;;;;5023851;28;20029;-67
2023/10/24 11:25:13;;;;;;;3.50;1.15;;;15.10;99.90;;;;;;5020830;28;20068;-67
2023/10/24 11:27:41;;;;;;;1.73;1.02;;;15.00;99.90;;;;;;5023633;28;20053;-67
2023/10/24 11:30:07;;;;;;;8.57;1.55;;;14.60;99.90;;;;;;5043884;28;20030;-67
2023/10/24 11:32:36;;;;;;;3.70;0.95;;;14.50;99.90;;;;;;5026454;28;20032;-67
2023/10/24 11:35:05;;;;;;;4.13;1.67;;;14.30;99.90;;;;;;5028317;28;20128;-67
2023/10/24 11:37:31;;;;;;;4.22;2.15;;;14.20;99.90;;;;;;5020223;28;20538;-67
2023/10/24 11:40:00;;;;;;;3.20;1.30;;;14.10;99.90;;;;;;5028394;28;20137;-67
2023/10/24 11:42:26;;;;;;;1.77;1.35;;;14.00;99.90;;;;;;5027513;28;20087;-67
2023/10/24 11:44:53;;;;;;;7.43;4.35;;;13.90;99.90;;;;;;5026698;28;20057;-67
2023/10/24 11:47:18;;;;;;;3.00;2.25;;;13.90;99.90;;;;;;5026447;28;20048;-67
2023/10/24 11:49:46;;;;;;;2.60;1.30;;;13.90;99.90;;;;;;5030039;28;20064;-67
2023/10/24 11:52:12;;;;;;;2.72;1.70;;;14.00;99.90;;;;;;5037248;28;20064;-67
2023/10/24 11:54:39;;;;;;;2.13;1.35;;;13.90;99.90;;;;;;5029645;28;20052;-67
2023/10/24 11:57:05;;;;;;;1.73;1.00;;;13.90;99.90;;;;;;5029173;28;20037;-71
2023/10/24 11:59:35;;;;;;;3.95;1.65;;;14.00;99.90;;;;;;5030135;28;20017;-67
2023/10/24 12:02:02;;;;;;;1.98;1.15;;;13.90;99.90;;;;;;5029076;28;20049;-67
2023/10/24 12:04:30;;;;;;;3.78;1.63;;;14.00;99.90;;;;;;5025812;28;20116;-67
2023/10/24 12:07:08;;;;;;;7.07;1.33;;;13.90;99.90;;;;;;5028708;28;20026;-67
2023/10/24 12:09:36;;;;;;;2.03;1.17;;;13.90;99.90;;;;;;5003485;28;20042;-67
2023/10/24 12:12:06;;;;;;;1.50;1.10;;;13.70;99.90;;;;;;5017012;28;20064;-68
2023/10/24 12:14:35;;;;;;;6.22;1.42;;;13.70;99.90;;;;;;5026517;28;20083;-67
2023/10/24 12:17:01;;;;;;;1.58;1.10;;;13.70;99.90;;;;;;5029603;28;20029;-67
2023/10/24 12:19:27;;;;;;;2.42;1.30;;;13.70;99.90;;;;;;5009666;28;20045;-67
2023/10/24 12:21:54;;;;;;;2.45;1.40;;;13.60;99.90;;;;;;5026890;28;20026;-67
2023/10/24 12:24:19;;;;;;;2.17;1.50;;;13.60;99.90;;;;;;5029383;28;20021;-67
2023/10/24 12:26:45;;;;;;;2.65;1.30;;;13.50;99.90;;;;;;5029033;28;20422;-67
2023/10/24 12:29:11;;;;;;;7.70;2.40;;;13.50;99.90;;;;;;5025486;28;20030;-67
2023/10/24 12:31:38;;;;;;;2.85;1.75;;;13.40;99.90;;;;;;5043917;28;20509;-67
2023/10/24 12:34:03;;;;;;;3.53;2.00;;;13.40;99.90;;;;;;5028743;28;20052;-67
2023/10/24 12:36:29;;;;;;;5.43;2.03;;;13.30;99.90;;;;;;5030816;28;20052;-67
2023/10/24 12:38:55;;;;;;;8.10;2.22;;;13.30;99.90;;;;;;5032840;28;20084;-68
2023/10/24 12:41:24;;;;;;;5.75;3.25;;;13.20;99.90;;;;;;5031583;28;20037;-67
2023/10/24 12:43:49;;;;;;;6.55;2.92;;;13.20;99.90;;;;;;5033645;28;20018;-67
2023/10/24 12:46:15;;;;;;;5.90;1.88;;;13.10;99.90;;;;;;5033637;28;20041;-67